Time;durP1;ratioP1;P1;durP2;ratioP2;P2;SDS_P1;SDS_P2;PMS_P1;PMS_P2;Temp;Humidity;BMP_temperature;BMP_pressure;BME280_temperature;BME280_humidity;BME280_pressure;Samples;Min_cycle;Max_cycle;Signal;HPM_P1;HPM_P2
2023/12/24 00:01:43;;;;;;;;;;;21.90;34.10;;;;;;5077356;28;19947;-57
2023/12/24 00:04:10;;;;;;;;;;;21.90;34.10;;;;;;5077606;28;19932;-57
2023/12/24 00:06:37;;;;;;;;;;;22.00;34.10;;;;;;5076939;28;19972;-57
2023/12/24 00:09:04;;;;;;;;;;;21.90;34.10;;;;;;5077313;28;20332;-57
2023/12/24 00:11:31;;;;;;;;;;;21.90;34.10;;;;;;5077133;28;19924;-57
2023/12/24 00:13:58;;;;;;;;;;;21.90;34.10;;;;;;5077567;28;19928;-59
2023/12/24 00:16:25;;;;;;;;;;;21.90;34.10;;;;;;5076776;28;19931;-57
2023/12/24 00:18:52;;;;;;;;;;;21.90;34.10;;;;;;5077172;28;20305;-57
2023/12/24 00:21:19;;;;;;;;;;;21.90;34.10;;;;;;5076866;28;19928;-57
2023/12/24 00:23:48;;;;;;;;;;;21.90;34.10;;;;;;5076793;28;19935;-57
2023/12/24 00:26:15;;;;;;;;;;;21.90;34.10;;;;;;5076657;28;20459;-57
2023/12/24 00:28:43;;;;;;;;;;;21.90;34.10;;;;;;5076647;28;20381;-57
2023/12/24 00:31:10;;;;;;;;;;;21.90;34.10;;;;;;5077007;28;19932;-57
2023/12/24 00:33:37;;;;;;;;;;;21.90;34.10;;;;;;5076492;28;19932;-57
2023/12/24 00:36:05;;;;;;;;;;;21.90;34.10;;;;;;5076591;28;19924;-57
2023/12/24 00:38:31;;;;;;;;;;;21.90;34.10;;;;;;5076753;28;20028;-57
2023/12/24 00:40:59;;;;;;;;;;;21.90;34.10;;;;;;5076463;28;20016;-57
2023/12/24 00:43:26;;;;;;;;;;;21.90;34.10;;;;;;5076442;28;19993;-57
2023/12/24 00:45:53;;;;;;;;;;;21.90;34.10;;;;;;5076394;28;20278;-56
2023/12/24 00:48:20;;;;;;;;;;;21.90;34.10;;;;;;5076107;28;20366;-57
2023/12/24 00:50:47;;;;;;;;;;;21.90;34.10;;;;;;5076651;28;19928;-57
2023/12/24 00:53:14;;;;;;;;;;;21.90;34.10;;;;;;5076206;28;20432;-58
2023/12/24 00:55:43;;;;;;;;;;;21.90;34.10;;;;;;5076195;28;19932;-57
2023/12/24 00:58:10;;;;;;;;;;;21.90;34.20;;;;;;5076302;28;19925;-58
2023/12/24 01:00:37;;;;;;;;;;;21.90;34.20;;;;;;5075992;28;20389;-58
2023/12/24 01:03:04;;;;;;;;;;;21.90;34.10;;;;;;5075655;28;19929;-56
2023/12/24 01:05:31;;;;;;;;;;;21.90;34.10;;;;;;5075923;28;19929;-57
2023/12/24 01:07:57;;;;;;;;;;;21.90;34.10;;;;;;5075885;28;19978;-57
2023/12/24 01:10:24;;;;;;;;;;;21.90;34.10;;;;;;5075929;28;19928;-58
2023/12/24 01:12:51;;;;;;;;;;;21.90;34.10;;;;;;5075815;28;19925;-58
2023/12/24 01:15:19;;;;;;;;;;;21.90;34.10;;;;;;5075812;28;19970;-57
2023/12/24 01:17:46;;;;;;;;;;;21.90;34.10;;;;;;5075684;28;19928;-57
2023/12/24 01:20:15;;;;;;;;;;;21.90;34.10;;;;;;5075804;28;19968;-58
2023/12/24 01:22:42;;;;;;;;;;;21.90;34.20;;;;;;5076100;28;20090;-57
2023/12/24 01:25:09;;;;;;;;;;;21.80;34.20;;;;;;5075536;28;19978;-58
2023/12/24 01:27:36;;;;;;;;;;;21.80;34.10;;;;;;5075447;28;19925;-58
2023/12/24 01:30:04;;;;;;;;;;;21.80;34.10;;;;;;5075901;28;20015;-58
2023/12/24 01:32:31;;;;;;;;;;;21.80;34.20;;;;;;5075652;28;19925;-57
2023/12/24 01:34:58;;;;;;;;;;;21.80;34.10;;;;;;5057932;28;19924;-57
2023/12/24 01:37:25;;;;;;;;;;;21.80;34.10;;;;;;5075527;28;19978;-58
2023/12/24 01:39:52;;;;;;;;;;;21.80;34.10;;;;;;5075598;28;19924;-57
2023/12/24 01:42:20;;;;;;;;;;;21.80;34.10;;;;;;5075700;28;19925;-58
2023/12/24 01:44:47;;;;;;;;;;;21.80;34.10;;;;;;5075659;28;19932;-57
2023/12/24 01:47:14;;;;;;;;;;;21.80;34.10;;;;;;5074987;28;19960;-58
2023/12/24 01:49:42;;;;;;;;;;;21.80;34.10;;;;;;5075149;28;20016;-58
2023/12/24 01:52:08;;;;;;;;;;;21.80;34.20;;;;;;5057437;28;19925;-58
2023/12/24 01:54:35;;;;;;;;;;;21.80;34.20;;;;;;5075276;28;20015;-58
2023/12/24 01:57:03;;;;;;;;;;;21.80;34.20;;;;;;5074784;28;20394;-58
2023/12/24 01:59:30;;;;;;;;;;;21.80;34.10;;;;;;5075392;28;19929;-58
2023/12/24 02:01:57;;;;;;;;;;;21.80;34.20;;;;;;5075111;28;20007;-57
2023/12/24 02:04:24;;;;;;;;;;;21.80;34.20;;;;;;5075329;28;19986;-58
2023/12/24 02:06:51;;;;;;;;;;;21.80;34.20;;;;;;5075161;28;20035;-58
2023/12/24 02:09:18;;;;;;;;;;;21.80;34.20;;;;;;5074669;28;20416;-58
2023/12/24 02:11:45;;;;;;;;;;;21.80;34.10;;;;;;5074742;28;19928;-57
2023/12/24 02:14:12;;;;;;;;;;;21.80;34.10;;;;;;5074882;28;19970;-58
2023/12/24 02:16:41;;;;;;;;;;;21.80;34.10;;;;;;5073881;28;19972;-57
2023/12/24 02:19:14;;;;;;;;;;;21.80;34.10;;;;;;5074769;28;20011;-58
2023/12/24 02:21:41;;;;;;;;;;;21.80;34.10;;;;;;5074148;28;19931;-57
2023/12/24 02:24:08;;;;;;;;;;;21.80;34.70;;;;;;5074781;28;19930;-58
2023/12/24 02:26:37;;;;;;;;;;;21.80;34.20;;;;;;5074555;28;19932;-58
2023/12/24 02:29:08;;;;;;;;;;;21.80;34.20;;;;;;5074115;28;19924;-58
2023/12/24 02:31:37;;;;;;;;;;;21.80;34.20;;;;;;5074447;28;20296;-57
2023/12/24 02:34:06;;;;;;;;;;;21.80;34.20;;;;;;5074346;28;19925;-58
2023/12/24 02:36:33;;;;;;;;;;;21.80;34.20;;;;;;5074585;28;19960;-58
2023/12/24 02:39:00;;;;;;;;;;;21.70;34.20;;;;;;5073240;28;19925;-58
2023/12/24 02:41:27;;;;;;;;;;;21.80;34.20;;;;;;5074589;28;19925;-58
2023/12/24 02:43:54;;;;;;;;;;;21.80;34.20;;;;;;5074011;28;20300;-57
2023/12/24 02:46:21;;;;;;;;;;;21.80;34.20;;;;;;5074069;28;20393;-57
2023/12/24 02:48:48;;;;;;;;;;;21.80;34.20;;;;;;5074268;28;20008;-57
2023/12/24 02:51:15;;;;;;;;;;;21.80;34.20;;;;;;5074225;28;19972;-58
2023/12/24 02:53:42;;;;;;;;;;;21.80;34.20;;;;;;5074148;28;19925;-58
2023/12/24 02:56:09;;;;;;;;;;;21.80;34.20;;;;;;5073818;28;19931;-58
2023/12/24 02:58:36;;;;;;;;;;;21.80;34.10;;;;;;5073604;28;20377;-58
2023/12/24 03:01:03;;;;;;;;;;;21.80;34.20;;;;;;5073708;28;19928;-58
2023/12/24 03:03:30;;;;;;;;;;;21.80;34.20;;;;;;5074004;28;19924;-58
2023/12/24 03:05:57;;;;;;;;;;;21.80;34.20;;;;;;5073520;28;20011;-58
2023/12/24 03:08:24;;;;;;;;;;;21.80;34.20;;;;;;5073632;28;19970;-58
2023/12/24 03:10:51;;;;;;;;;;;21.80;34.20;;;;;;5072500;28;19925;-58
2023/12/24 03:13:18;;;;;;;;;;;21.70;34.10;;;;;;5073553;28;20027;-58
2023/12/24 03:15:45;;;;;;;;;;;21.80;34.20;;;;;;5073706;28;19928;-58
2023/12/24 03:18:11;;;;;;;;;;;21.70;34.10;;;;;;5073474;28;19931;-58
2023/12/24 03:20:39;;;;;;;;;;;21.80;34.20;;;;;;5073790;28;20319;-58
2023/12/24 03:23:06;;;;;;;;;;;21.70;34.10;;;;;;5073481;28;20408;-58
2023/12/24 03:25:33;;;;;;;;;;;21.80;34.20;;;;;;5073609;28;20011;-61
2023/12/24 03:27:59;;;;;;;;;;;21.80;34.20;;;;;;5073212;28;19924;-58
2023/12/24 03:30:26;;;;;;;;;;;21.80;34.20;;;;;;5073217;28;19970;-58
2023/12/24 03:32:54;;;;;;;;;;;21.70;34.10;;;;;;5073896;28;20293;-57
2023/12/24 03:35:23;;;;;;;;;;;21.70;34.20;;;;;;5072399;28;20019;-57
2023/12/24 03:37:50;;;;;;;;;;;21.70;34.20;;;;;;5073236;28;19970;-57
2023/12/24 03:40:17;;;;;;;;;;;21.70;34.20;;;;;;5073657;28;19925;-57
2023/12/24 03:42:43;;;;;;;;;;;21.70;34.20;;;;;;5073511;28;20023;-58
2023/12/24 03:45:10;;;;;;;;;;;21.70;34.20;;;;;;5073383;28;19968;-57
2023/12/24 03:47:38;;;;;;;;;;;21.70;34.20;;;;;;5073249;28;19925;-58
2023/12/24 03:50:05;;;;;;;;;;;21.70;34.20;;;;;;5072264;28;20408;-58
2023/12/24 03:52:32;;;;;;;;;;;21.70;34.20;;;;;;5073333;28;20377;-58
2023/12/24 03:54:59;;;;;;;;;;;21.70;34.20;;;;;;5072322;28;19925;-58
2023/12/24 03:57:26;;;;;;;;;;;21.70;34.20;;;;;;5072837;28;20381;-58
2023/12/24 03:59:53;;;;;;;;;;;21.70;34.20;;;;;;5073102;28;19924;-57
2023/12/24 04:02:24;;;;;;;;;;;21.80;34.20;;;;;;5073116;28;19936;-58
2023/12/24 04:04:51;;;;;;;;;;;21.80;34.20;;;;;;5073034;28;19978;-57
2023/12/24 04:07:18;;;;;;;;;;;21.70;34.10;;;;;;5073023;28;20373;-58
2023/12/24 04:09:45;;;;;;;;;;;21.70;34.10;;;;;;5072861;28;19935;-58
2023/12/24 04:12:12;;;;;;;;;;;21.70;34.10;;;;;;5072863;28;19925;-58
2023/12/24 04:14:39;;;;;;;;;;;21.70;34.20;;;;;;5073302;28;19924;-58
2023/12/24 04:17:06;;;;;;;;;;;21.70;34.20;;;;;;5072738;28;19977;-57
2023/12/24 04:19:33;;;;;;;;;;;21.70;34.10;;;;;;5072613;28;19954;-57
2023/12/24 04:22:00;;;;;;;;;;;21.80;34.20;;;;;;5073029;28;20285;-58
2023/12/24 04:24:27;;;;;;;;;;;21.70;34.10;;;;;;5073240;28;19931;-58
2023/12/24 04:26:54;;;;;;;;;;;21.80;34.20;;;;;;5072754;28;20008;-57
2023/12/24 04:29:21;;;;;;;;;;;21.70;34.10;;;;;;5072678;28;19970;-58
2023/12/24 04:31:48;;;;;;;;;;;21.70;34.10;;;;;;5072784;28;19935;-58
2023/12/24 04:34:15;;;;;;;;;;;21.70;34.10;;;;;;5072835;28;20348;-58
2023/12/24 04:36:42;;;;;;;;;;;21.70;34.10;;;;;;5072947;28;19929;-58
2023/12/24 04:39:09;;;;;;;;;;;21.70;34.20;;;;;;5072550;28;19932;-58
2023/12/24 04:41:36;;;;;;;;;;;21.70;34.10;;;;;;5072573;28;20019;-58
2023/12/24 04:44:03;;;;;;;;;;;21.80;34.10;;;;;;5072724;28;19978;-58
2023/12/24 04:46:30;;;;;;;;;;;21.80;34.00;;;;;;5075720;28;20298;-58
2023/12/24 04:48:57;;;;;;;;;;;21.80;33.90;;;;;;5076133;28;19971;-58
2023/12/24 04:51:24;;;;;;;;;;;21.80;33.80;;;;;;5076327;28;20464;-58
2023/12/24 04:53:51;;;;;;;;;;;21.80;33.80;;;;;;5076375;28;19924;-57
2023/12/24 04:56:19;;;;;;;;;;;21.90;33.80;;;;;;5076413;28;19967;-58
2023/12/24 04:58:46;;;;;;;;;;;21.90;33.80;;;;;;5076145;28;19991;-58
2023/12/24 05:01:16;;;;;;;;;;;21.90;33.70;;;;;;5076268;28;20377;-58
2023/12/24 05:03:43;;;;;;;;;;;21.90;33.60;;;;;;5076050;28;20088;-58
2023/12/24 05:06:11;;;;;;;;;;;22.00;33.60;;;;;;5076149;28;19977;-58
2023/12/24 05:08:42;;;;;;;;;;;22.00;33.50;;;;;;5076166;28;19970;-58
2023/12/24 05:11:09;;;;;;;;;;;22.00;33.40;;;;;;5075860;28;19924;-58
2023/12/24 05:13:36;;;;;;;;;;;22.10;33.30;;;;;;5076201;28;19924;-58
2023/12/24 05:16:03;;;;;;;;;;;22.10;33.30;;;;;;5075641;28;19928;-58
2023/12/24 05:18:32;;;;;;;;;;;22.20;33.20;;;;;;5076129;28;20266;-58
2023/12/24 05:20:59;;;;;;;;;;;22.20;33.10;;;;;;5076117;28;19924;-58
2023/12/24 05:23:26;;;;;;;;;;;22.20;33.00;;;;;;5075509;28;19963;-58
2023/12/24 05:25:53;;;;;;;;;;;22.30;32.90;;;;;;5074883;28;20331;-57
2023/12/24 05:28:20;;;;;;;;;;;22.40;32.90;;;;;;5075755;28;19979;-57
2023/12/24 05:30:47;;;;;;;;;;;22.40;32.70;;;;;;5075525;28;19924;-57
2023/12/24 05:33:14;;;;;;;;;;;22.50;32.70;;;;;;5075352;28;19939;-57
2023/12/24 05:35:41;;;;;;;;;;;22.50;32.60;;;;;;5075578;28;19986;-57
2023/12/24 05:38:09;;;;;;;;;;;22.50;32.60;;;;;;5075461;28;20285;-57
2023/12/24 05:40:35;;;;;;;;;;;22.60;32.50;;;;;;5075320;28;20012;-57
2023/12/24 05:43:03;;;;;;;;;;;22.60;32.40;;;;;;5075206;28;20301;-57
2023/12/24 05:45:30;;;;;;;;;;;22.60;32.30;;;;;;5074368;28;20316;-57
2023/12/24 05:47:57;;;;;;;;;;;22.70;32.30;;;;;;5075700;28;20382;-57
2023/12/24 05:50:24;;;;;;;;;;;22.70;32.20;;;;;;5075633;28;20037;-58
2023/12/24 05:52:53;;;;;;;;;;;22.80;32.20;;;;;;5075189;28;19925;-59
2023/12/24 05:55:20;;;;;;;;;;;22.80;32.10;;;;;;5075424;28;20285;-58
2023/12/24 05:57:47;;;;;;;;;;;22.80;32.00;;;;;;5074182;28;20289;-58
2023/12/24 06:00:14;;;;;;;;;;;22.80;32.00;;;;;;5073727;28;20121;-57
2023/12/24 06:02:42;;;;;;;;;;;22.80;31.90;;;;;;5074845;28;19970;-57
2023/12/24 06:05:09;;;;;;;;;;;22.90;31.90;;;;;;5074958;28;20019;-57
2023/12/24 06:07:37;;;;;;;;;;;22.90;31.80;;;;;;5074732;28;19924;-58
2023/12/24 06:10:04;;;;;;;;;;;22.90;31.80;;;;;;5075578;28;19928;-57
2023/12/24 06:12:31;;;;;;;;;;;23.00;31.80;;;;;;5075060;28;19925;-57
2023/12/24 06:14:58;;;;;;;;;;;23.00;31.70;;;;;;5075304;28;19924;-58
2023/12/24 06:17:25;;;;;;;;;;;23.00;31.70;;;;;;5074486;28;19929;-58
2023/12/24 06:19:52;;;;;;;;;;;23.10;31.60;;;;;;5074860;28;19932;-58
2023/12/24 06:22:19;;;;;;;;;;;23.10;31.60;;;;;;5074172;28;19925;-57
2023/12/24 06:24:46;;;;;;;;;;;23.10;31.50;;;;;;5074998;28;20274;-58
2023/12/24 06:27:13;;;;;;;;;;;23.10;31.50;;;;;;5074847;28;20023;-58
2023/12/24 06:29:40;;;;;;;;;;;23.20;31.50;;;;;;5074455;28;20356;-58
2023/12/24 06:32:07;;;;;;;;;;;23.20;31.40;;;;;;5074707;28;19924;-58
2023/12/24 06:34:34;;;;;;;;;;;23.30;31.40;;;;;;5074493;28;19924;-58
2023/12/24 06:37:01;;;;;;;;;;;23.30;31.30;;;;;;5056413;28;20017;-58
2023/12/24 06:39:28;;;;;;;;;;;23.30;31.20;;;;;;5056768;28;19924;-58
2023/12/24 06:41:58;;;;;;;;;;;23.30;31.20;;;;;;5073823;28;19929;-58
2023/12/24 06:44:25;;;;;;;;;;;23.30;31.10;;;;;;5074213;28;19932;-58
2023/12/24 06:46:51;;;;;;;;;;;23.40;31.20;;;;;;5074098;28;19926;-58
2023/12/24 06:49:19;;;;;;;;;;;23.40;31.10;;;;;;5073815;28;19924;-58
2023/12/24 06:51:46;;;;;;;;;;;23.40;31.10;;;;;;5074208;28;19929;-58
2023/12/24 06:54:13;;;;;;;;;;;23.40;31.10;;;;;;5074239;28;19924;-58
2023/12/24 06:56:39;;;;;;;;;;;23.40;31.00;;;;;;5074034;28;19966;-58
2023/12/24 06:59:07;;;;;;;;;;;23.40;30.90;;;;;;5074233;28;20348;-58
2023/12/24 07:01:33;;;;;;;;;;;23.50;31.00;;;;;;5073761;28;19924;-58
2023/12/24 07:04:00;;;;;;;;;;;23.50;30.90;;;;;;5074071;28;19928;-58
2023/12/24 07:06:27;;;;;;;;;;;23.50;30.90;;;;;;5073670;28;19978;-58
2023/12/24 07:08:54;;;;;;;;;;;23.60;30.90;;;;;;5073450;28;19924;-58
2023/12/24 07:11:21;;;;;;;;;;;23.60;30.90;;;;;;5073495;28;20400;-58
2023/12/24 07:13:48;;;;;;;;;;;23.60;30.80;;;;;;5039859;28;19929;-58
2023/12/24 07:16:16;;;;;;;;;;;23.60;30.80;;;;;;5073330;28;20011;-57
2023/12/24 07:18:42;;;;;;;;;;;23.60;30.70;;;;;;5073854;28;20354;-58
2023/12/24 07:21:10;;;;;;;;;;;23.60;30.70;;;;;;5073777;28;20324;-58
2023/12/24 07:23:37;;;;;;;;;;;23.70;30.70;;;;;;5073430;28;20314;-58
2023/12/24 07:26:05;;;;;;;;;;;23.70;30.70;;;;;;5073437;28;19924;-58
2023/12/24 07:28:32;;;;;;;;;;;23.70;30.60;;;;;;5073173;28;19925;-57
2023/12/24 07:30:59;;;;;;;;;;;23.80;30.60;;;;;;5073233;28;19974;-57
2023/12/24 07:33:26;;;;;;;;;;;23.80;30.60;;;;;;5073437;28;19928;-58
2023/12/24 07:35:54;;;;;;;;;;;23.80;30.50;;;;;;5073263;28;20408;-57
2023/12/24 07:38:21;;;;;;;;;;;23.80;30.50;;;;;;5073598;28;19959;-57
2023/12/24 07:40:48;;;;;;;;;;;23.80;30.50;;;;;;5072744;28;20374;-57
2023/12/24 07:43:15;;;;;;;;;;;23.90;30.50;;;;;;5073468;28;20039;-57
2023/12/24 07:45:42;;;;;;;;;;;23.90;30.40;;;;;;5073356;28;20341;-58
2023/12/24 07:48:10;;;;;;;;;;;23.90;30.40;;;;;;5073258;28;19924;-58
2023/12/24 07:50:38;;;;;;;;;;;23.90;30.30;;;;;;5073059;28;20443;-58
2023/12/24 07:53:05;;;;;;;;;;;23.90;30.30;;;;;;5073214;28;20022;-58
2023/12/24 07:55:32;;;;;;;;;;;24.00;30.40;;;;;;5073430;28;19925;-58
2023/12/24 07:57:58;;;;;;;;;;;24.00;30.30;;;;;;5073073;28;19928;-58
2023/12/24 08:00:25;;;;;;;;;;;24.00;30.30;;;;;;5073022;28;19935;-58
2023/12/24 08:02:52;;;;;;;;;;;24.00;30.30;;;;;;5072917;28;20395;-58
2023/12/24 08:05:20;;;;;;;;;;;24.00;30.20;;;;;;5073323;28;19925;-58
2023/12/24 08:07:47;;;;;;;;;;;24.00;30.20;;;;;;5073118;28;20339;-58
2023/12/24 08:10:13;;;;;;;;;;;24.00;30.20;;;;;;5072655;28;19931;-58
2023/12/24 08:12:40;;;;;;;;;;;24.10;30.20;;;;;;5071934;28;19924;-58
2023/12/24 08:15:07;;;;;;;;;;;24.10;30.20;;;;;;5072801;28;19968;-58
2023/12/24 08:17:34;;;;;;;;;;;24.10;30.10;;;;;;5072755;28;19931;-58
2023/12/24 08:20:03;;;;;;;;;;;24.10;30.10;;;;;;5073837;28;20007;-58
2023/12/24 08:22:30;;;;;;;;;;;24.10;30.10;;;;;;5076730;28;19955;-58
2023/12/24 08:24:57;;;;;;;;;;;24.20;30.00;;;;;;5076706;28;19925;-58
2023/12/24 08:27:24;;;;;;;;;;;24.20;30.00;;;;;;5077164;28;19931;-58
2023/12/24 08:29:51;;;;;;;;;;;24.20;30.00;;;;;;5076450;28;19978;-58
2023/12/24 08:32:18;;;;;;;;;;;24.20;30.00;;;;;;5075585;28;20336;-58
2023/12/24 08:34:45;;;;;;;;;;;24.30;30.00;;;;;;5076781;28;19925;-58
2023/12/24 08:37:11;;;;;;;;;;;24.30;30.00;;;;;;5076780;28;20011;-58
2023/12/24 08:39:38;;;;;;;;;;;24.30;30.00;;;;;;5076708;28;20336;-58
2023/12/24 08:42:06;;;;;;;;;;;24.30;30.00;;;;;;5075970;28;19979;-58
2023/12/24 08:44:35;;;;;;;;;;;24.30;30.00;;;;;;5076190;28;19939;-58
2023/12/24 08:47:02;;;;;;;;;;;24.40;30.00;;;;;;5076643;28;19925;-58
2023/12/24 08:49:29;;;;;;;;;;;24.40;29.90;;;;;;5076345;28;20423;-58
2023/12/24 08:51:56;;;;;;;;;;;24.40;29.90;;;;;;5076218;28;19928;-58
2023/12/24 08:54:24;;;;;;;;;;;24.40;29.90;;;;;;5076642;28;19959;-60
2023/12/24 08:56:51;;;;;;;;;;;24.50;29.90;;;;;;5076435;28;19931;-58
2023/12/24 08:59:18;;;;;;;;;;;24.50;29.90;;;;;;5076441;28;19925;-58
2023/12/24 09:01:45;;;;;;;;;;;24.50;29.80;;;;;;5058178;28;19924;-58
2023/12/24 09:04:12;;;;;;;;;;;24.50;29.80;;;;;;5076341;28;19924;-58
2023/12/24 09:06:39;;;;;;;;;;;24.50;29.80;;;;;;5076081;28;19954;-57
2023/12/24 09:09:08;;;;;;;;;;;24.50;29.80;;;;;;5075875;28;19928;-57
2023/12/24 09:11:36;;;;;;;;;;;24.60;29.80;;;;;;5075824;28;19935;-58
2023/12/24 09:14:03;;;;;;;;;;;24.60;29.80;;;;;;5076051;28;19924;-58
2023/12/24 09:16:30;;;;;;;;;;;24.60;29.70;;;;;;5076067;28;19947;-58
2023/12/24 09:18:57;;;;;;;;;;;24.60;29.70;;;;;;5075832;28;19928;-58
2023/12/24 09:21:24;;;;;;;;;;;24.60;29.70;;;;;;5075943;28;19925;-58
2023/12/24 09:23:51;;;;;;;;;;;24.70;29.70;;;;;;5075737;28;19924;-57
2023/12/24 09:26:18;;;;;;;;;;;24.70;29.70;;;;;;5075797;28;19929;-58
2023/12/24 09:28:45;;;;;;;;;;;24.70;29.70;;;;;;5058079;28;19928;-58
2023/12/24 09:31:12;;;;;;;;;;;24.70;29.70;;;;;;5075081;28;20352;-57
2023/12/24 09:33:39;;;;;;;;;;;24.70;29.70;;;;;;5075117;28;20362;-57
2023/12/24 09:36:07;;;;;;;;;;;24.70;29.70;;;;;;5075817;28;20019;-57
2023/12/24 09:38:35;;;;;;;;;;;24.70;29.60;;;;;;5075781;28;19967;-57
2023/12/24 09:41:02;;;;;;;;;;;24.80;29.70;;;;;;5075438;28;19932;-57
2023/12/24 09:43:30;;;;;;;;;;;24.80;29.60;;;;;;5075217;28;19924;-57
2023/12/24 09:45:57;;;;;;;;;;;24.80;29.60;;;;;;5075607;28;19925;-57
2023/12/24 09:48:24;;;;;;;;;;;24.80;29.60;;;;;;5075415;28;19924;-57
2023/12/24 09:50:51;;;;;;;;;;;24.90;29.60;;;;;;5075497;28;19960;-58
2023/12/24 09:53:18;;;;;;;;;;;24.90;29.60;;;;;;5075185;28;19959;-57
2023/12/24 09:55:45;;;;;;;;;;;24.90;29.60;;;;;;5075122;28;19925;-57
2023/12/24 09:58:12;;;;;;;;;;;24.90;29.50;;;;;;5075244;28;20370;-58
2023/12/24 10:00:39;;;;;;;;;;;24.90;29.50;;;;;;5074901;28;19925;-57
2023/12/24 10:03:06;;;;;;;;;;;25.00;29.50;;;;;;5075009;28;19974;-57
2023/12/24 10:05:33;;;;;;;;;;;25.00;29.50;;;;;;5074871;28;19924;-58
2023/12/24 10:08:02;;;;;;;;;;;25.00;29.50;;;;;;5075219;28;19925;-57
2023/12/24 10:10:30;;;;;;;;;;;25.10;29.50;;;;;;5074670;28;19924;-58
2023/12/24 10:13:05;;;;;;;;;;;25.10;29.50;;;;;;5075122;28;19932;-58
2023/12/24 10:15:32;;;;;;;;;;;25.10;29.50;;;;;;5075028;28;20061;-58
2023/12/24 10:18:15;;;;;;;;;;;25.10;29.50;;;;;;5074534;28;19924;-58
2023/12/24 10:20:42;;;;;;;;;;;25.10;29.50;;;;;;5074609;28;19925;-58
2023/12/24 10:23:09;;;;;;;;;;;25.10;29.50;;;;;;5074636;28;19925;-58
2023/12/24 10:25:36;;;;;;;;;;;25.10;29.50;;;;;;5056882;28;20366;-57
2023/12/24 10:28:06;;;;;;;;;;;25.20;29.50;;;;;;5074853;28;20372;-58
2023/12/24 10:30:34;;;;;;;;;;;25.20;29.50;;;;;;5074248;28;19925;-58
2023/12/24 10:33:09;;;;;;;;;;;25.20;29.50;;;;;;5074576;28;19925;-58
2023/12/24 10:35:36;;;;;;;;;;;25.20;29.50;;;;;;5074384;28;19936;-58
2023/12/24 10:38:13;;;;;;;;;;;25.30;29.50;;;;;;5074102;28;19935;-58
2023/12/24 10:40:41;;;;;;;;;;;25.20;29.50;;;;;;5071793;28;20417;-58
2023/12/24 10:43:08;;;;;;;;;;;25.30;29.50;;;;;;5056025;28;19925;-58
2023/12/24 10:45:35;;;;;;;;;;;25.30;29.50;;;;;;5074330;28;19970;-58
2023/12/24 10:48:02;;;;;;;;;;;25.30;29.50;;;;;;5074490;28;20015;-58
2023/12/24 10:50:29;;;;;;;;;;;25.30;29.50;;;;;;5074335;28;19925;-58
2023/12/24 10:52:56;;;;;;;;;;;25.40;29.50;;;;;;5073949;28;20009;-58
2023/12/24 10:55:24;;;;;;;;;;;25.40;29.50;;;;;;5074280;28;20011;-58
2023/12/24 10:58:11;;;;;;;;;;;25.40;29.40;;;;;;5074110;28;20292;-58
2023/12/24 11:00:38;;;;;;;;;;;25.40;29.40;;;;;;5056232;28;20339;-58
2023/12/24 11:03:04;;;;;;;;;;;25.40;29.40;;;;;;5074020;28;19932;-58
2023/12/24 11:05:46;;;;;;;;;;;25.40;29.40;;;;;;5074056;28;19932;-58
2023/12/24 11:08:29;;;;;;;;;;;25.50;29.50;;;;;;5074229;28;19931;-58
2023/12/24 11:10:58;;;;;;;;;;;25.50;29.40;;;;;;5073464;28;19928;-58
2023/12/24 11:13:42;;;;;;;;;;;25.60;29.40;;;;;;5073703;28;19970;-58
2023/12/24 11:16:09;;;;;;;;;;;25.60;29.40;;;;;;5055731;28;19928;-58
2023/12/24 11:18:43;;;;;;;;;;;25.70;29.40;;;;;;5074004;28;20278;-58
2023/12/24 11:21:12;;;;;;;;;;;25.70;29.40;;;;;;5073315;28;20381;-58
2023/12/24 11:23:41;;;;;;;;;;;25.70;29.30;;;;;;5072838;28;20069;-58
2023/12/24 11:26:29;;;;;;;;;;;25.80;29.30;;;;;;5073566;28;19955;-58
2023/12/24 11:28:56;;;;;;;;;;;25.80;29.30;;;;;;5073137;28;19925;-58
2023/12/24 11:31:24;;;;;;;;;;;25.90;29.30;;;;;;5073266;28;19925;-58
2023/12/24 11:33:53;;;;;;;;;;;26.00;29.30;;;;;;5073524;28;19960;-59
2023/12/24 11:36:21;;;;;;;;;;;26.00;29.20;;;;;;5073579;28;19978;-58
2023/12/24 11:38:55;;;;;;;;;;;26.00;29.20;;;;;;5073093;28;19924;-59
2023/12/24 11:41:23;;;;;;;;;;;26.10;29.10;;;;;;5073274;28;19924;-57
2023/12/24 11:43:55;;;;;;;;;;;26.10;29.10;;;;;;5073141;28;19932;-58
2023/12/24 11:46:23;;;;;;;;;;;26.10;29.10;;;;;;5055805;28;20337;-58
2023/12/24 11:48:50;;;;;;;;;;;26.10;29.10;;;;;;5073493;28;19932;-58
2023/12/24 11:51:22;;;;;;;;;;;26.10;29.50;;;;;;5073210;28;19929;-58
2023/12/24 11:53:49;;;;;;;;;;;26.10;29.10;;;;;;5073350;28;20007;-58
2023/12/24 11:56:17;;;;;;;;;;;26.10;29.20;;;;;;5072559;28;19931;-58
2023/12/24 11:59:00;;;;;;;;;;;26.10;29.10;;;;;;5073145;28;19974;-58
2023/12/24 12:01:30;;;;;;;;;;;26.20;29.10;;;;;;5073186;28;19932;-57
2023/12/24 12:03:58;;;;;;;;;;;26.20;29.10;;;;;;5073327;28;20365;-58
2023/12/24 12:06:26;;;;;;;;;;;26.20;29.10;;;;;;5072482;28;19931;-57
2023/12/24 12:08:53;;;;;;;;;;;26.20;29.50;;;;;;5073077;28;19960;-59
2023/12/24 12:11:20;;;;;;;;;;;26.20;29.10;;;;;;5072900;28;19928;-57
2023/12/24 12:13:47;;;;;;;;;;;26.20;29.10;;;;;;5073219;28;19928;-58
2023/12/24 12:16:14;;;;;;;;;;;26.20;29.10;;;;;;5072634;28;19974;-58
2023/12/24 12:18:41;;;;;;;;;;;26.20;29.10;;;;;;5072991;28;20010;-57
2023/12/24 12:21:11;;;;;;;;;;;26.20;29.10;;;;;;5072747;28;19930;-58
2023/12/24 12:23:38;;;;;;;;;;;26.20;29.10;;;;;;5071183;28;20412;-58
2023/12/24 12:26:06;;;;;;;;;;;26.20;29.20;;;;;;5071182;28;19925;-59
2023/12/24 12:28:34;;;;;;;;;;;26.20;29.40;;;;;;5071798;28;19924;-58
2023/12/24 12:31:01;;;;;;;;;;;26.20;29.40;;;;;;5054471;28;19924;-58
2023/12/24 12:33:28;;;;;;;;;;;26.10;29.30;;;;;;5072662;28;19971;-58
2023/12/24 12:35:56;;;;;;;;;;;26.10;29.40;;;;;;5072394;28;20328;-58
2023/12/24 12:38:23;;;;;;;;;;;26.00;29.40;;;;;;5072626;28;20316;-58
2023/12/24 12:40:51;;;;;;;;;;;26.00;29.40;;;;;;5071621;28;20408;-57
2023/12/24 12:43:18;;;;;;;;;;;25.90;29.40;;;;;;5072451;28;20015;-58
2023/12/24 12:45:45;;;;;;;;;;;25.90;29.60;;;;;;5072778;28;19924;-57
2023/12/24 12:48:15;;;;;;;;;;;25.80;29.60;;;;;;5072881;28;19929;-57
2023/12/24 12:50:42;;;;;;;;;;;25.70;29.60;;;;;;5071808;28;19943;-57
2023/12/24 12:53:09;;;;;;;;;;;25.60;29.60;;;;;;5072122;28;19970;-57
2023/12/24 12:55:36;;;;;;;;;;;25.60;29.80;;;;;;5055045;28;19971;-58
2023/12/24 12:58:10;;;;;;;;;;;25.50;29.80;;;;;;5072014;28;19974;-58
2023/12/24 13:00:37;;;;;;;;;;;25.40;29.90;;;;;;5071920;28;19933;-57
2023/12/24 13:03:07;;;;;;;;;;;25.40;29.90;;;;;;5072294;28;19928;-57
2023/12/24 13:05:35;;;;;;;;;;;25.40;30.00;;;;;;5072359;28;19924;-57
2023/12/24 13:08:15;;;;;;;;;;;25.30;30.00;;;;;;5075821;28;19925;-57
2023/12/24 13:10:43;;;;;;;;;;;25.30;30.00;;;;;;5075107;28;19924;-58
2023/12/24 13:13:11;;;;;;;;;;;25.20;30.10;;;;;;5075070;28;20598;-57
2023/12/24 13:15:39;;;;;;;;;;;25.20;30.20;;;;;;5075166;28;20655;-58
2023/12/24 13:18:18;;;;;;;;;;;25.10;30.20;;;;;;5076003;28;19974;-58
2023/12/24 13:20:49;;;;;;;;;;;25.00;30.30;;;;;;5058438;28;20449;-57
2023/12/24 13:23:19;;;;;;;;;;;25.00;30.40;;;;;;5074316;28;20393;-57
2023/12/24 13:25:46;;;;;;;;;;;24.90;30.40;;;;;;5075784;28;20278;-57
2023/12/24 13:28:16;;;;;;;;;;;24.90;30.50;;;;;;5076015;28;20011;-55
2023/12/24 13:30:47;;;;;;;;;;;24.90;30.60;;;;;;5075530;28;20425;-58
2023/12/24 13:33:14;;;;;;;;;;;24.80;30.70;;;;;;5075474;28;19966;-58
2023/12/24 13:35:42;;;;;;;;;;;24.70;30.70;;;;;;5074515;28;19939;-57
2023/12/24 13:38:12;;;;;;;;;;;24.70;30.80;;;;;;5075460;28;19925;-57
2023/12/24 13:40:40;;;;;;;;;;;24.70;30.90;;;;;;5075832;28;19929;-57
2023/12/24 13:43:08;;;;;;;;;;;24.60;30.90;;;;;;5075184;28;20280;-57
2023/12/24 13:45:35;;;;;;;;;;;24.50;31.00;;;;;;5075269;28;20293;-55
2023/12/24 13:48:03;;;;;;;;;;;24.50;31.10;;;;;;5074775;28;19924;-57
2023/12/24 13:50:34;;;;;;;;;;;24.40;31.10;;;;;;5075351;28;19924;-57
2023/12/24 13:53:02;;;;;;;;;;;24.40;31.20;;;;;;5075226;28;19924;-56
2023/12/24 13:55:49;;;;;;;;;;;24.30;31.30;;;;;;5074869;28;20016;-54
2023/12/24 13:58:16;;;;;;;;;;;24.30;31.40;;;;;;5074965;28;19924;-57
2023/12/24 14:00:44;;;;;;;;;;;24.30;31.50;;;;;;5075037;28;20365;-56
2023/12/24 14:03:11;;;;;;;;;;;24.20;31.50;;;;;;5074773;28;20453;-57
2023/12/24 14:05:40;;;;;;;;;;;24.20;31.60;;;;;;5074853;28;20424;-54
2023/12/24 14:08:07;;;;;;;;;;;24.20;31.60;;;;;;5074622;28;19986;-56
2023/12/24 14:10:34;;;;;;;;;;;24.10;31.70;;;;;;5073994;28;19931;-57
2023/12/24 14:13:02;;;;;;;;;;;24.10;31.70;;;;;;5074058;28;19925;-56
2023/12/24 14:15:29;;;;;;;;;;;24.00;31.70;;;;;;5073121;28;19928;-58
2023/12/24 14:17:58;;;;;;;;;;;24.00;31.80;;;;;;5073093;28;20286;-57
2023/12/24 14:20:25;;;;;;;;;;;24.00;31.90;;;;;;5074872;28;19964;-58